createdAt,value
2018-08-06T00:00:48.435Z,100461.00
2018-08-06T00:03:19.743Z,100456.00
2018-08-06T00:05:49.873Z,100461.00
2018-08-06T00:08:20.816Z,100459.00
2018-08-06T00:10:51.097Z,100461.00
2018-08-06T00:13:21.876Z,100449.00
2018-08-06T00:15:52.279Z,100449.00
2018-08-06T00:18:23.786Z,100448.00
2018-08-06T00:20:55.288Z,100454.00
2018-08-06T00:23:26.652Z,100445.00
2018-08-06T00:25:56.911Z,100448.00
2018-08-06T00:28:27.936Z,100449.00
2018-08-06T00:30:59.342Z,100444.00
2018-08-06T00:33:29.429Z,100445.00
2018-08-06T00:35:59.979Z,100442.00
2018-08-06T00:38:30.229Z,100446.00
2018-08-06T00:41:00.528Z,100435.00
2018-08-06T00:43:30.742Z,100448.00
2018-08-06T00:46:01.093Z,100440.00
2018-08-06T00:48:31.947Z,100443.00
2018-08-06T00:51:02.362Z,100440.00
2018-08-06T00:53:32.572Z,100437.00
2018-08-06T00:56:03.742Z,100437.00
2018-08-06T00:58:33.859Z,100432.00
2018-08-06T01:01:04.364Z,100438.00
2018-08-06T01:03:34.611Z,100434.00
2018-08-06T01:06:05.786Z,100437.00
2018-08-06T01:08:36.423Z,100438.00
2018-08-06T01:11:07.294Z,100443.00
2018-08-06T01:13:37.682Z,100433.00
2018-08-06T01:16:08.408Z,100431.00
2018-08-06T01:18:39.064Z,100427.00
2018-08-06T01:21:09.308Z,100431.00
2018-08-06T01:23:39.452Z,100430.00
2018-08-06T01:26:10.059Z,100423.00
2018-08-06T01:28:40.321Z,100428.00
2018-08-06T01:31:11.901Z,100422.00
2018-08-06T01:33:42.225Z,100423.00
2018-08-06T01:36:12.999Z,100424.00
2018-08-06T01:38:43.507Z,100421.00
2018-08-06T01:41:13.720Z,100425.00
2018-08-06T01:43:44.306Z,100426.00
2018-08-06T01:46:15.013Z,100423.00
2018-08-06T01:48:45.542Z,100425.00
2018-08-06T01:51:15.731Z,100418.00
2018-08-06T01:53:45.806Z,100417.00
2018-08-06T01:56:16.111Z,100417.00
2018-08-06T01:58:46.173Z,100420.00
2018-08-06T02:01:16.351Z,100415.00
2018-08-06T02:03:46.413Z,100421.00
2018-08-06T02:06:16.962Z,100420.00
2018-08-06T02:08:47.963Z,100417.00
2018-08-06T02:11:18.121Z,100405.00
2018-08-06T02:13:48.399Z,100402.00
2018-08-06T02:16:18.705Z,100404.00
2018-08-06T02:18:49.246Z,100404.00
2018-08-06T02:21:19.454Z,100401.00
2018-08-06T02:23:50.649Z,100389.00
2018-08-06T02:26:21.963Z,100397.00
2018-08-06T02:28:52.017Z,100392.00
2018-08-06T02:31:22.492Z,100389.00
2018-08-06T02:33:53.042Z,100389.00
2018-08-06T02:36:23.266Z,100393.00
2018-08-06T02:38:53.552Z,100389.00
2018-08-06T02:41:23.769Z,100386.00
2018-08-06T02:43:54.170Z,100377.00
2018-08-06T02:46:24.379Z,100387.00
2018-08-06T02:48:55.046Z,100375.00
2018-08-06T02:51:25.226Z,100366.00
2018-08-06T02:53:56.485Z,100368.00
2018-08-06T02:56:26.246Z,100363.00
2018-08-06T02:58:57.114Z,100364.00
2018-08-06T03:01:26.988Z,100366.00
2018-08-06T03:03:58.361Z,100367.00
2018-08-06T03:06:28.377Z,100362.00
2018-08-06T03:08:58.600Z,100344.00
2018-08-06T03:11:28.757Z,100353.00
2018-08-06T03:13:59.858Z,100352.00
2018-08-06T03:16:30.129Z,100350.00
2018-08-06T03:19:00.631Z,100350.00
2018-08-06T03:21:30.678Z,100345.00
2018-08-06T03:24:01.579Z,100339.00
2018-08-06T03:26:31.842Z,100350.00
2018-08-06T03:29:01.835Z,100342.00
2018-08-06T03:31:31.978Z,100337.00
2018-08-06T03:34:02.065Z,100338.00
2018-08-06T03:36:32.176Z,100335.00
2018-08-06T03:39:02.594Z,100340.00
2018-08-06T03:41:33.331Z,100335.00
2018-08-06T03:44:03.697Z,100325.00
2018-08-06T03:46:33.878Z,100321.00
2018-08-06T03:49:04.007Z,100324.00
2018-08-06T03:51:34.378Z,100335.00
2018-08-06T03:54:04.454Z,100330.00
2018-08-06T03:56:34.977Z,100311.00
2018-08-06T03:59:05.716Z,100304.00
2018-08-06T04:01:36.153Z,100311.00
2018-08-06T04:04:06.231Z,100322.00
2018-08-06T04:06:36.655Z,100305.00
2018-08-06T04:09:08.794Z,100307.00
2018-08-06T04:11:38.873Z,100305.00
2018-08-06T04:14:09.310Z,100311.00
2018-08-06T04:16:43.192Z,100308.00
2018-08-06T04:19:14.384Z,100296.00
2018-08-06T04:21:44.544Z,100311.00
2018-08-06T04:24:14.838Z,100303.00
2018-08-06T04:26:45.250Z,100305.00
2018-08-06T04:29:15.577Z,100309.00
2018-08-06T04:31:45.782Z,100301.00
2018-08-06T04:34:16.318Z,100303.00
2018-08-06T04:36:46.529Z,100297.00
2018-08-06T04:39:17.079Z,100291.00
2018-08-06T04:41:47.462Z,100291.00
2018-08-06T04:44:17.412Z,100296.00
2018-08-06T04:46:47.767Z,100290.00
2018-08-06T04:49:17.829Z,100293.00
2018-08-06T04:51:48.164Z,100295.00
2018-08-06T04:54:18.538Z,100288.00
2018-08-06T04:56:48.764Z,100289.00
2018-08-06T04:59:19.607Z,100294.00
2018-08-06T05:01:50.325Z,100294.00
2018-08-06T05:04:20.673Z,100293.00
2018-08-06T05:06:50.909Z,100285.00
2018-08-06T05:09:24.780Z,100284.00
2018-08-06T05:11:54.864Z,100298.00
2018-08-06T05:14:25.004Z,100296.00
2018-08-06T05:16:55.193Z,100297.00
2018-08-06T05:19:25.246Z,100296.00
2018-08-06T05:21:55.451Z,100288.00
2018-08-06T05:24:25.963Z,100299.00
2018-08-06T05:26:56.369Z,100289.00
2018-08-06T05:29:26.446Z,100294.00
2018-08-06T05:31:56.737Z,100298.00
2018-08-06T05:34:26.779Z,100296.00
2018-08-06T05:36:56.980Z,100300.00
2018-08-06T05:39:27.622Z,100307.00
2018-08-06T05:41:57.857Z,100300.00
2018-08-06T05:44:28.711Z,100303.00
2018-08-06T05:47:00.026Z,100301.00
2018-08-06T05:49:30.109Z,100305.00
2018-08-06T05:52:01.620Z,100308.00
2018-08-06T05:54:32.272Z,100308.00
2018-08-06T05:57:02.717Z,100300.00
2018-08-06T05:59:32.736Z,100309.00
2018-08-06T06:02:03.190Z,100306.00
2018-08-06T06:04:33.306Z,100308.00
2018-08-06T06:07:03.113Z,100314.00
2018-08-06T06:09:33.420Z,100316.00
2018-08-06T06:12:03.648Z,100312.00
2018-08-06T06:14:33.825Z,100315.00
2018-08-06T06:17:04.017Z,100316.00
2018-08-06T06:19:35.720Z,100314.00
2018-08-06T06:22:06.116Z,100323.00
2018-08-06T06:24:36.317Z,100317.00
2018-08-06T06:27:06.477Z,100321.00
2018-08-06T06:29:36.609Z,100325.00
2018-08-06T06:32:07.404Z,100321.00
2018-08-06T06:34:37.790Z,100323.00
2018-08-06T06:37:08.052Z,100317.00
2018-08-06T06:39:38.663Z,100331.00
2018-08-06T06:42:09.001Z,100311.00
2018-08-06T06:44:39.200Z,100316.00
2018-08-06T06:47:10.797Z,100306.00
2018-08-06T06:49:40.846Z,100308.00
2018-08-06T06:52:11.340Z,100300.00
2018-08-06T06:54:41.721Z,100311.00
2018-08-06T06:57:14.605Z,100310.00
2018-08-06T06:59:45.066Z,100303.00
2018-08-06T07:02:15.283Z,100309.00
2018-08-06T07:04:45.427Z,100309.00
2018-08-06T07:07:15.523Z,100305.00
2018-08-06T07:09:45.845Z,100309.00
2018-08-06T07:12:16.219Z,100306.00
2018-08-06T07:14:46.762Z,100310.00
2018-08-06T07:17:17.185Z,100311.00
2018-08-06T07:19:47.448Z,100307.00
2018-08-06T07:22:17.628Z,100300.00
2018-08-06T07:24:48.460Z,100310.00
2018-08-06T07:27:18.738Z,100306.00
2018-08-06T07:29:49.107Z,100298.00
2018-08-06T07:32:20.556Z,100297.00
2018-08-06T07:34:50.932Z,100294.00
2018-08-06T07:37:21.139Z,100303.00
2018-08-06T07:39:51.229Z,100299.00
2018-08-06T07:42:21.661Z,100304.00
2018-08-06T07:44:52.929Z,100297.00
2018-08-06T07:47:23.311Z,100292.00
2018-08-06T07:49:53.889Z,100291.00
2018-08-06T07:52:24.357Z,100290.00
2018-08-06T07:54:55.458Z,100289.00
2018-08-06T07:57:25.679Z,100235.00
2018-08-06T07:59:55.917Z,100232.00
2018-08-06T08:02:25.882Z,100284.00
2018-08-06T08:04:56.366Z,100282.00
2018-08-06T08:07:27.548Z,100286.00
2018-08-06T08:09:57.961Z,100281.00
2018-08-06T08:12:28.077Z,100281.00
2018-08-06T08:14:58.225Z,100274.00
2018-08-06T08:17:28.685Z,100269.00
2018-08-06T08:19:59.027Z,100278.00
2018-08-06T08:22:29.253Z,100284.00
2018-08-06T08:24:59.795Z,100271.00
2018-08-06T08:27:30.621Z,100277.00
2018-08-06T08:30:01.091Z,100280.00
2018-08-06T08:32:31.613Z,100274.00
2018-08-06T08:35:02.236Z,100270.00
2018-08-06T08:37:33.943Z,100274.00
2018-08-06T08:40:05.885Z,100274.00
2018-08-06T08:42:36.901Z,100267.00
2018-08-06T08:45:11.114Z,100267.00
2018-08-06T08:47:42.566Z,100275.00
2018-08-06T08:50:15.786Z,100263.00
2018-08-06T08:52:46.259Z,100263.00
2018-08-06T08:55:19.607Z,100267.00
2018-08-06T08:57:49.929Z,100271.00
2018-08-06T09:00:22.532Z,100267.00
2018-08-06T09:02:53.457Z,100264.00
2018-08-06T09:05:23.621Z,100259.00
2018-08-06T09:07:54.538Z,100255.00
2018-08-06T09:10:25.716Z,100263.00
2018-08-06T09:12:56.168Z,100255.00
2018-08-06T09:15:33.644Z,100256.00
2018-08-06T09:18:03.728Z,100255.00
2018-08-06T09:20:34.045Z,100261.00
2018-08-06T09:23:04.696Z,100252.00
2018-08-06T09:25:35.482Z,100252.00
2018-08-06T09:28:05.585Z,100253.00
2018-08-06T09:30:35.743Z,100251.00
2018-08-06T09:33:06.097Z,100245.00
2018-08-06T09:35:36.495Z,100248.00
2018-08-06T09:38:07.663Z,100245.00
2018-08-06T09:40:38.041Z,100250.00
2018-08-06T09:43:08.547Z,100250.00
2018-08-06T09:45:40.184Z,100251.00
2018-08-06T09:48:10.361Z,100254.00
2018-08-06T09:50:40.935Z,100245.00
2018-08-06T09:53:11.393Z,100234.00
2018-08-06T09:55:41.930Z,100234.00
2018-08-06T09:58:22.258Z,100234.00
2018-08-06T10:00:57.650Z,100238.00
2018-08-06T10:03:27.964Z,100241.00
2018-08-06T10:05:58.269Z,100235.00
2018-08-06T10:08:28.670Z,100229.00
2018-08-06T10:10:59.514Z,100230.00
2018-08-06T10:13:30.359Z,100225.00
2018-08-06T10:16:01.255Z,100222.00
2018-08-06T10:18:31.607Z,100223.00
2018-08-06T10:21:01.973Z,100217.00
2018-08-06T10:23:32.565Z,100221.00
2018-08-06T10:26:02.860Z,100218.00
2018-08-06T10:28:33.191Z,100218.00
2018-08-06T10:31:03.745Z,100206.00
2018-08-06T10:33:34.018Z,100205.00
2018-08-06T10:36:05.128Z,100216.00
2018-08-06T10:38:35.279Z,100213.00
2018-08-06T10:41:05.725Z,100210.00
2018-08-06T10:43:36.327Z,100197.00
2018-08-06T10:46:06.650Z,100195.00
2018-08-06T10:48:37.045Z,100195.00
2018-08-06T10:51:08.384Z,100203.00
2018-08-06T10:53:40.498Z,100202.00
2018-08-06T10:56:11.739Z,100196.00
2018-08-06T10:58:42.679Z,100195.00
2018-08-06T11:01:13.386Z,100194.00
2018-08-06T11:03:44.537Z,100195.00
2018-08-06T11:06:15.373Z,100183.00
2018-08-06T11:08:46.620Z,100183.00
2018-08-06T11:11:17.703Z,100183.00
2018-08-06T11:13:48.882Z,100184.00
2018-08-06T11:16:19.726Z,100174.00
2018-08-06T11:18:57.497Z,100170.00
2018-08-06T11:21:31.368Z,100176.00
2018-08-06T11:24:02.107Z,100174.00
2018-08-06T11:26:32.204Z,100172.00
2018-08-06T11:29:03.913Z,100161.00
2018-08-06T11:31:34.998Z,100167.00
2018-08-06T11:34:05.179Z,100156.00
2018-08-06T11:36:39.759Z,100157.00
2018-08-06T11:39:11.674Z,100161.00
2018-08-06T11:41:42.806Z,100149.00
2018-08-06T11:44:13.128Z,100161.00
2018-08-06T11:46:43.202Z,100141.00
2018-08-06T11:49:15.374Z,100145.00
2018-08-06T11:51:50.080Z,100148.00
2018-08-06T11:54:20.334Z,100144.00
2018-08-06T11:56:52.517Z,100144.00
2018-08-06T11:59:22.889Z,100147.00
2018-08-06T12:01:55.306Z,100146.00
2018-08-06T12:04:26.277Z,100134.00
2018-08-06T12:06:56.497Z,100129.00
2018-08-06T12:09:26.546Z,100131.00
2018-08-06T12:11:56.796Z,100131.00
2018-08-06T12:14:27.353Z,100123.00
2018-08-06T12:16:58.691Z,100119.00
2018-08-06T12:19:28.868Z,100122.00
2018-08-06T12:21:59.505Z,100122.00
2018-08-06T12:24:32.356Z,100118.00
2018-08-06T12:27:03.860Z,100112.00
2018-08-06T12:29:34.404Z,100117.00
2018-08-06T12:32:04.662Z,100109.00
2018-08-06T12:34:34.587Z,100102.00
2018-08-06T12:37:04.692Z,100114.00
2018-08-06T12:39:35.148Z,100109.00
2018-08-06T12:42:05.566Z,100106.00
2018-08-06T12:44:35.903Z,100105.00
2018-08-06T12:47:06.505Z,100103.00
2018-08-06T12:49:36.590Z,100103.00
2018-08-06T12:52:07.427Z,100104.00
2018-08-06T12:54:38.984Z,100105.00
2018-08-06T12:57:09.716Z,100106.00
2018-08-06T12:59:40.931Z,100100.00
2018-08-06T13:02:12.650Z,100100.00
2018-08-06T13:04:42.916Z,100097.00
2018-08-06T13:07:13.090Z,100098.00
2018-08-06T13:09:43.337Z,100088.00
2018-08-06T13:12:13.641Z,100085.00
2018-08-06T13:14:43.925Z,100088.00
2018-08-06T13:17:17.194Z,100092.00
2018-08-06T13:19:47.509Z,100085.00
2018-08-06T13:22:17.509Z,100097.00
2018-08-06T13:24:47.805Z,100085.00
2018-08-06T13:27:18.701Z,100087.00
2018-08-06T13:29:49.602Z,100095.00
2018-08-06T13:32:22.611Z,100083.00
2018-08-06T13:34:52.509Z,100083.00
2018-08-06T13:37:24.595Z,100084.00
2018-08-06T13:39:54.662Z,100075.00
2018-08-06T13:42:24.780Z,100083.00
2018-08-06T13:44:55.426Z,100082.00
2018-08-06T13:47:25.528Z,100077.00
2018-08-06T13:49:56.041Z,100061.00
2018-08-06T13:52:26.919Z,100067.00
2018-08-06T13:54:56.914Z,100060.00
2018-08-06T13:57:30.265Z,100064.00
2018-08-06T14:00:01.195Z,100061.00
2018-08-06T14:02:33.637Z,100062.00
2018-08-06T14:05:04.441Z,100057.00
2018-08-06T14:07:35.377Z,100045.00
2018-08-06T14:10:07.195Z,100038.00
2018-08-06T14:12:38.658Z,100043.00
2018-08-06T14:15:10.967Z,100031.00
2018-08-06T14:17:41.933Z,100032.00
2018-08-06T14:20:17.190Z,100030.00
2018-08-06T14:22:47.681Z,100026.00
2018-08-06T14:25:17.983Z,100022.00
2018-08-06T14:27:51.575Z,100017.00
2018-08-06T14:30:23.777Z,100021.00
2018-08-06T14:32:56.639Z,100020.00
2018-08-06T14:35:34.161Z,100018.00
2018-08-06T14:38:07.383Z,100029.00
2018-08-06T14:40:40.727Z,100015.00
2018-08-06T14:43:14.117Z,100020.00
2018-08-06T14:45:46.928Z,100019.00
2018-08-06T14:48:19.633Z,100025.00
2018-08-06T14:50:52.554Z,100018.00
2018-08-06T14:53:25.670Z,100034.00
2018-08-06T14:55:57.607Z,100009.00
2018-08-06T14:58:29.593Z,100005.00
2018-08-06T15:01:01.905Z,100009.00
2018-08-06T15:03:35.445Z,100007.00
2018-08-06T15:06:07.429Z,100025.00
2018-08-06T15:08:39.391Z,100014.00
2018-08-06T15:11:12.355Z,99998.00
2018-08-06T15:13:45.919Z,99997.00
2018-08-06T15:16:16.746Z,100002.00
2018-08-06T15:18:49.118Z,100003.00
2018-08-06T15:21:20.760Z,99996.00
2018-08-06T15:23:57.956Z,99996.00
2018-08-06T15:26:30.617Z,99994.00
2018-08-06T15:29:04.493Z,100003.00
2018-08-06T15:31:35.526Z,99995.00
2018-08-06T15:34:05.486Z,100003.00
2018-08-06T15:36:35.974Z,99993.00
2018-08-06T15:39:13.682Z,99984.00
2018-08-06T15:41:44.971Z,99989.00
2018-08-06T15:44:15.242Z,99990.00
2018-08-06T15:46:45.372Z,99987.00
2018-08-06T15:49:15.659Z,99985.00
2018-08-06T15:51:45.853Z,99974.00
2018-08-06T15:54:16.252Z,99982.00
2018-08-06T15:56:46.449Z,99969.00
2018-08-06T15:59:17.220Z,99969.00
2018-08-06T16:01:47.669Z,99978.00
2018-08-06T16:04:19.269Z,99973.00
2018-08-06T16:06:49.405Z,99962.00
2018-08-06T16:09:19.994Z,99957.00
2018-08-06T16:11:50.523Z,99960.00
2018-08-06T16:14:20.692Z,99978.00
2018-08-06T16:16:51.028Z,99961.00
2018-08-06T16:19:22.644Z,99950.00
2018-08-06T16:21:54.969Z,99952.00
2018-08-06T16:24:24.889Z,99953.00
2018-08-06T16:26:54.738Z,99959.00
2018-08-06T16:29:25.202Z,99956.00
2018-08-06T16:31:55.576Z,99952.00
2018-08-06T16:34:26.210Z,99959.00
2018-08-06T16:36:57.249Z,99941.00
2018-08-06T16:39:27.334Z,99941.00
2018-08-06T16:41:57.954Z,99942.00
2018-08-06T16:44:28.332Z,99931.00
2018-08-06T16:46:59.493Z,99931.00
2018-08-06T16:49:30.487Z,99948.00
2018-08-06T16:52:01.636Z,99943.00
2018-08-06T16:54:32.574Z,99932.00
2018-08-06T16:57:03.328Z,99934.00
2018-08-06T16:59:34.145Z,99942.00
2018-08-06T17:02:04.627Z,99935.00
2018-08-06T17:04:34.738Z,99931.00
2018-08-06T17:07:04.979Z,99930.00
2018-08-06T17:09:35.818Z,99929.00
2018-08-06T17:12:06.541Z,99939.00
2018-08-06T17:14:37.293Z,99937.00
2018-08-06T17:17:08.542Z,99933.00
2018-08-06T17:19:40.059Z,99925.00
2018-08-06T17:22:12.958Z,99927.00
2018-08-06T17:24:43.217Z,99918.00
2018-08-06T17:27:13.269Z,99924.00
2018-08-06T17:29:44.110Z,99924.00
2018-08-06T17:32:14.473Z,99920.00
2018-08-06T17:34:45.754Z,99929.00
2018-08-06T17:37:16.346Z,99923.00
2018-08-06T17:39:46.629Z,99918.00
2018-08-06T17:42:16.700Z,99926.00
2018-08-06T17:44:48.086Z,99919.00
2018-08-06T17:47:18.912Z,99913.00
2018-08-06T17:49:49.118Z,99906.00
2018-08-06T17:52:19.765Z,99906.00
2018-08-06T17:54:57.359Z,99909.00
2018-08-06T17:57:28.636Z,99901.00
2018-08-06T17:59:59.381Z,99911.00
2018-08-06T18:02:29.713Z,99906.00
2018-08-06T18:05:00.320Z,99896.00
2018-08-06T18:07:30.783Z,99899.00
2018-08-06T18:10:01.676Z,99898.00
2018-08-06T18:12:32.589Z,99906.00
2018-08-06T18:15:03.198Z,99895.00
2018-08-06T18:17:33.229Z,99894.00
2018-08-06T18:20:03.373Z,99886.00
2018-08-06T18:22:34.276Z,99894.00
2018-08-06T18:25:06.674Z,99894.00
2018-08-06T18:27:37.934Z,99888.00
2018-08-06T18:30:15.842Z,99891.00
2018-08-06T18:32:46.397Z,99886.00
2018-08-06T18:35:17.776Z,99883.00
2018-08-06T18:37:48.366Z,99895.00
2018-08-06T18:40:20.023Z,99890.00
2018-08-06T18:42:51.460Z,99886.00
2018-08-06T18:45:23.058Z,99891.00
2018-08-06T18:47:53.172Z,99900.00
2018-08-06T18:50:24.041Z,99895.00
2018-08-06T18:52:54.743Z,99894.00
2018-08-06T18:55:25.766Z,99891.00
2018-08-06T18:57:56.020Z,99889.00
2018-08-06T19:00:27.198Z,99887.00
2018-08-06T19:02:57.410Z,99888.00
2018-08-06T19:05:27.598Z,99889.00
2018-08-06T19:07:57.707Z,99884.00
2018-08-06T19:10:28.019Z,99881.00
2018-08-06T19:13:03.129Z,99884.00
2018-08-06T19:15:34.266Z,99875.00
2018-08-06T19:18:09.514Z,99874.00
2018-08-06T19:20:39.608Z,99878.00
2018-08-06T19:23:10.505Z,99878.00
2018-08-06T19:25:41.282Z,99880.00
2018-08-06T19:28:11.914Z,99876.00
2018-08-06T19:30:47.274Z,99872.00
2018-08-06T19:33:17.452Z,99875.00
2018-08-06T19:35:48.058Z,99878.00
2018-08-06T19:38:18.712Z,99872.00
2018-08-06T19:40:48.841Z,99873.00
2018-08-06T19:43:24.192Z,99882.00
2018-08-06T19:45:54.434Z,99875.00
2018-08-06T19:48:24.720Z,99873.00
2018-08-06T19:50:54.962Z,99868.00
2018-08-06T19:53:25.165Z,99867.00
2018-08-06T19:56:00.332Z,99868.00
2018-08-06T19:58:30.380Z,99865.00
2018-08-06T20:01:00.898Z,99867.00
2018-08-06T20:03:31.229Z,99861.00
2018-08-06T20:06:01.417Z,99869.00
2018-08-06T20:08:31.839Z,99861.00
2018-08-06T20:11:02.227Z,99866.00
2018-08-06T20:13:32.907Z,99858.00
2018-08-06T20:16:03.293Z,99862.00
2018-08-06T20:18:34.065Z,99864.00
2018-08-06T20:21:04.285Z,99868.00
2018-08-06T20:23:35.212Z,99867.00
2018-08-06T20:26:05.488Z,99867.00
2018-08-06T20:28:35.468Z,99855.00
2018-08-06T20:31:05.767Z,99856.00
2018-08-06T20:33:35.892Z,99854.00
2018-08-06T20:36:07.090Z,99864.00
2018-08-06T20:38:37.104Z,99859.00
2018-08-06T20:41:07.158Z,99860.00
2018-08-06T20:43:38.160Z,99857.00
2018-08-06T20:46:08.721Z,99857.00
2018-08-06T20:48:39.382Z,99853.00
2018-08-06T20:51:09.990Z,99859.00
2018-08-06T20:53:41.260Z,99857.00
2018-08-06T20:56:11.801Z,99861.00
2018-08-06T20:58:41.849Z,99852.00
2018-08-06T21:01:12.286Z,99856.00
2018-08-06T21:03:42.269Z,99850.00
2018-08-06T21:06:12.627Z,99858.00
2018-08-06T21:08:42.821Z,99847.00
2018-08-06T21:11:13.018Z,99845.00
2018-08-06T21:13:43.346Z,99842.00
2018-08-06T21:16:13.577Z,99849.00
2018-08-06T21:18:43.570Z,99845.00
2018-08-06T21:21:13.659Z,99847.00
2018-08-06T21:23:44.124Z,99835.00
2018-08-06T21:26:14.670Z,99838.00
2018-08-06T21:28:45.830Z,99844.00
2018-08-06T21:31:16.115Z,99841.00
2018-08-06T21:33:46.052Z,99850.00
2018-08-06T21:36:16.161Z,99845.00
2018-08-06T21:38:46.591Z,99839.00
2018-08-06T21:41:16.886Z,99834.00
2018-08-06T21:43:47.083Z,99833.00
2018-08-06T21:46:17.549Z,99839.00
2018-08-06T21:48:47.894Z,99840.00
2018-08-06T21:51:18.028Z,99836.00
2018-08-06T21:53:48.410Z,99835.00
2018-08-06T21:56:19.110Z,99835.00
2018-08-06T21:58:49.346Z,99838.00
2018-08-06T22:01:20.232Z,99837.00
2018-08-06T22:03:50.678Z,99828.00
2018-08-06T22:06:20.773Z,99831.00
2018-08-06T22:08:50.903Z,99830.00
2018-08-06T22:11:21.601Z,99827.00
2018-08-06T22:13:51.856Z,99826.00
2018-08-06T22:16:22.165Z,99827.00
2018-08-06T22:18:52.309Z,99825.00
2018-08-06T22:21:22.634Z,99823.00
2018-08-06T22:23:53.042Z,99823.00
2018-08-06T22:26:23.041Z,99821.00
2018-08-06T22:28:53.365Z,99821.00
2018-08-06T22:31:24.911Z,99822.00
2018-08-06T22:33:55.599Z,99817.00
2018-08-06T22:36:26.445Z,99821.00
2018-08-06T22:38:56.630Z,99817.00
2018-08-06T22:41:26.945Z,99818.00
2018-08-06T22:43:57.681Z,99818.00
2018-08-06T22:46:28.350Z,99813.00
2018-08-06T22:48:59.152Z,99811.00
2018-08-06T22:51:29.929Z,99804.00
2018-08-06T22:54:00.240Z,99800.00
2018-08-06T22:56:30.361Z,99794.00
2018-08-06T22:59:01.800Z,99792.00
2018-08-06T23:01:32.473Z,99796.00
2018-08-06T23:04:02.928Z,99794.00
2018-08-06T23:06:34.094Z,99796.00
2018-08-06T23:09:07.479Z,99785.00
2018-08-06T23:11:37.935Z,99788.00
2018-08-06T23:14:09.531Z,99789.00
2018-08-06T23:16:40.148Z,99784.00
2018-08-06T23:19:10.275Z,99796.00
2018-08-06T23:21:41.342Z,99791.00
2018-08-06T23:24:11.737Z,99789.00
2018-08-06T23:26:41.994Z,99792.00
2018-08-06T23:29:12.492Z,99795.00
2018-08-06T23:31:44.959Z,99789.00
2018-08-06T23:34:15.020Z,99797.00
2018-08-06T23:36:46.618Z,99796.00
2018-08-06T23:39:23.984Z,99795.00
2018-08-06T23:41:55.735Z,99797.00
2018-08-06T23:44:26.109Z,99790.00
2018-08-06T23:46:56.928Z,99786.00
2018-08-06T23:49:27.162Z,99777.00
2018-08-06T23:51:58.779Z,99779.00
2018-08-06T23:54:29.820Z,99781.00
2018-08-06T23:57:00.762Z,99781.00
2018-08-06T23:59:31.369Z,99780.00
